sensor_id;sensor_type;location;lat;lon;timestamp;pressure;altitude;pressure_sealevel;temperature;humidity
70314;BME280;71040;47.526;18.986;2023-10-31T00:00:19;98879.09;;;15.93;96.08
70314;BME280;71040;47.526;18.986;2023-10-31T00:05:19;98856.38;;;15.92;96.10
70314;BME280;71040;47.526;18.986;2023-10-31T00:10:20;98859.38;;;15.87;96.20
70314;BME280;71040;47.526;18.986;2023-10-31T00:15:22;98866.91;;;15.92;96.15
70314;BME280;71040;47.526;18.986;2023-10-31T00:20:24;98873.97;;;15.91;96.24
70314;BME280;71040;47.526;18.986;2023-10-31T00:25:25;98855.66;;;15.90;96.20
70314;BME280;71040;47.526;18.986;2023-10-31T00:30:25;98839.84;;;15.90;96.22
70314;BME280;71040;47.526;18.986;2023-10-31T00:35:26;98838.16;;;15.89;96.14
70314;BME280;71040;47.526;18.986;2023-10-31T00:40:28;98840.78;;;15.89;96.28
70314;BME280;71040;47.526;18.986;2023-10-31T00:45:31;98825.94;;;15.88;96.00
70314;BME280;71040;47.526;18.986;2023-10-31T00:50:34;98814.56;;;15.87;96.27
70314;BME280;71040;47.526;18.986;2023-10-31T00:55:34;98807.72;;;15.85;96.37
70314;BME280;71040;47.526;18.986;2023-10-31T01:00:35;98796.34;;;15.84;96.13
70314;BME280;71040;47.526;18.986;2023-10-31T01:05:37;98800.53;;;15.87;96.25
70314;BME280;71040;47.526;18.986;2023-10-31T01:10:37;98778.75;;;15.85;96.22
70314;BME280;71040;47.526;18.986;2023-10-31T01:15:38;98775.28;;;15.84;96.08
70314;BME280;71040;47.526;18.986;2023-10-31T01:20:38;98773.72;;;15.82;96.34
70314;BME280;71040;47.526;18.986;2023-10-31T01:25:39;98763.16;;;15.82;96.21
70314;BME280;71040;47.526;18.986;2023-10-31T01:30:39;98759.59;;;15.83;96.19
70314;BME280;71040;47.526;18.986;2023-10-31T01:35:39;98746.19;;;15.75;96.24
70314;BME280;71040;47.526;18.986;2023-10-31T01:40:40;98758.06;;;15.80;96.19
70314;BME280;71040;47.526;18.986;2023-10-31T01:45:43;98745.69;;;15.81;96.17
70314;BME280;71040;47.526;18.986;2023-10-31T01:50:45;98731.72;;;15.80;96.17
70314;BME280;71040;47.526;18.986;2023-10-31T01:55:46;98736.38;;;15.77;96.25
70314;BME280;71040;47.526;18.986;2023-10-31T02:00:47;98737.94;;;15.79;96.19
70314;BME280;71040;47.526;18.986;2023-10-31T02:05:47;98728.47;;;15.77;96.13
70314;BME280;71040;47.526;18.986;2023-10-31T02:10:47;98730.28;;;15.76;96.29
70314;BME280;71040;47.526;18.986;2023-10-31T02:15:48;98734.81;;;15.74;96.25
70314;BME280;71040;47.526;18.986;2023-10-31T02:20:51;98706.69;;;15.75;96.42
70314;BME280;71040;47.526;18.986;2023-10-31T02:25:51;98715.41;;;15.75;96.43
70314;BME280;71040;47.526;18.986;2023-10-31T02:30:52;98696.25;;;15.73;96.47
70314;BME280;71040;47.526;18.986;2023-10-31T02:35:52;98702.38;;;15.74;96.46
70314;BME280;71040;47.526;18.986;2023-10-31T02:40:57;98709.56;;;15.72;96.31
70314;BME280;71040;47.526;18.986;2023-10-31T02:45:57;98686.81;;;15.71;96.52
70314;BME280;71040;47.526;18.986;2023-10-31T02:50:57;98680.56;;;15.72;96.40
70314;BME280;71040;47.526;18.986;2023-10-31T02:55:58;98694.81;;;15.69;96.37
70314;BME280;71040;47.526;18.986;2023-10-31T03:00:58;98703.56;;;15.70;96.46
70314;BME280;71040;47.526;18.986;2023-10-31T03:05:59;98700.94;;;15.70;96.51
70314;BME280;71040;47.526;18.986;2023-10-31T03:10:59;98691.63;;;15.66;96.52
70314;BME280;71040;47.526;18.986;2023-10-31T03:16:00;98698.47;;;15.68;96.42
70314;BME280;71040;47.526;18.986;2023-10-31T03:21:00;98703.00;;;15.66;96.67
70314;BME280;71040;47.526;18.986;2023-10-31T03:26:03;98700.38;;;15.66;96.48
70314;BME280;71040;47.526;18.986;2023-10-31T03:31:03;98713.53;;;15.66;96.56
70314;BME280;71040;47.526;18.986;2023-10-31T03:36:04;98723.25;;;15.66;96.49
70314;BME280;71040;47.526;18.986;2023-10-31T03:41:05;98731.38;;;15.63;96.53
70314;BME280;71040;47.526;18.986;2023-10-31T03:46:05;98743.84;;;15.61;96.80
70314;BME280;71040;47.526;18.986;2023-10-31T03:51:09;98746.47;;;15.61;96.67
70314;BME280;71040;47.526;18.986;2023-10-31T03:56:12;98731.50;;;15.61;96.61
70314;BME280;71040;47.526;18.986;2023-10-31T04:01:12;98738.56;;;15.61;96.71
70314;BME280;71040;47.526;18.986;2023-10-31T04:06:13;98729.84;;;15.60;96.80
70314;BME280;71040;47.526;18.986;2023-10-31T04:11:13;98731.63;;;15.60;96.77
70314;BME280;71040;47.526;18.986;2023-10-31T04:16:16;98723.72;;;15.60;96.66
70314;BME280;71040;47.526;18.986;2023-10-31T04:21:16;98715.00;;;15.59;96.79
70314;BME280;71040;47.526;18.986;2023-10-31T04:26:19;98696.81;;;15.56;96.72
70314;BME280;71040;47.526;18.986;2023-10-31T04:31:22;98677.88;;;15.51;96.97
70314;BME280;71040;47.526;18.986;2023-10-31T04:36:24;98681.84;;;15.56;96.60
70314;BME280;71040;47.526;18.986;2023-10-31T04:41:25;98681.84;;;15.56;96.65
70314;BME280;71040;47.526;18.986;2023-10-31T04:46:25;98676.72;;;15.55;96.92
70314;BME280;71040;47.526;18.986;2023-10-31T04:51:27;98662.69;;;15.54;96.94
70314;BME280;71040;47.526;18.986;2023-10-31T04:56:27;98655.72;;;15.53;96.93
70314;BME280;71040;47.526;18.986;2023-10-31T05:01:28;98635.63;;;15.52;96.93
70314;BME280;71040;47.526;18.986;2023-10-31T05:06:30;98614.22;;;15.46;96.95
70314;BME280;71040;47.526;18.986;2023-10-31T05:11:31;98625.91;;;15.53;96.79
70314;BME280;71040;47.526;18.986;2023-10-31T05:16:31;98601.06;;;15.46;96.99
70314;BME280;71040;47.526;18.986;2023-10-31T05:21:32;98617.28;;;15.51;96.89
70314;BME280;71040;47.526;18.986;2023-10-31T05:26:35;98648.91;;;15.51;97.04
70314;BME280;71040;47.526;18.986;2023-10-31T05:31:36;98692.00;;;15.50;97.14
70314;BME280;71040;47.526;18.986;2023-10-31T05:36:38;98688.53;;;15.49;96.97
70314;BME280;71040;47.526;18.986;2023-10-31T05:41:39;98655.25;;;15.48;97.11
70314;BME280;71040;47.526;18.986;2023-10-31T05:46:39;98657.16;;;15.46;97.23
70314;BME280;71040;47.526;18.986;2023-10-31T05:51:40;98647.63;;;15.45;97.24
70314;BME280;71040;47.526;18.986;2023-10-31T05:56:40;98647.16;;;15.40;97.07
70314;BME280;71040;47.526;18.986;2023-10-31T06:01:45;98645.00;;;15.45;97.22
70314;BME280;71040;47.526;18.986;2023-10-31T06:06:45;98638.06;;;15.44;97.24
70314;BME280;71040;47.526;18.986;2023-10-31T06:11:52;98666.06;;;15.45;97.09
70314;BME280;71040;47.526;18.986;2023-10-31T06:16:52;98656.50;;;15.44;97.07
70314;BME280;71040;47.526;18.986;2023-10-31T06:21:53;98639.84;;;15.44;97.20
70314;BME280;71040;47.526;18.986;2023-10-31T06:26:54;98648.81;;;15.41;97.19
70314;BME280;71040;47.526;18.986;2023-10-31T06:31:59;98657.56;;;15.42;97.19
70314;BME280;71040;47.526;18.986;2023-10-31T06:36:59;98655.78;;;15.42;97.12
70314;BME280;71040;47.526;18.986;2023-10-31T06:42:00;98653.50;;;15.38;97.18
70314;BME280;71040;47.526;18.986;2023-10-31T06:47:00;98663.78;;;15.41;97.21
70314;BME280;71040;47.526;18.986;2023-10-31T06:52:00;98653.38;;;15.39;97.44
70314;BME280;71040;47.526;18.986;2023-10-31T06:57:01;98655.28;;;15.37;97.27
70314;BME280;71040;47.526;18.986;2023-10-31T07:02:04;98673.50;;;15.40;97.45
70314;BME280;71040;47.526;18.986;2023-10-31T07:07:07;98652.94;;;15.34;97.33
70314;BME280;71040;47.526;18.986;2023-10-31T07:12:10;98637.53;;;15.50;96.93
70314;BME280;71040;47.526;18.986;2023-10-31T07:17:13;98635.75;;;16.34;94.49
70314;BME280;71040;47.526;18.986;2023-10-31T07:22:16;98631.00;;;17.08;92.08
70314;BME280;71040;47.526;18.986;2023-10-31T07:27:17;98640.00;;;17.65;90.29
70314;BME280;71040;47.526;18.986;2023-10-31T07:32:18;98612.28;;;17.98;89.17
70314;BME280;71040;47.526;18.986;2023-10-31T07:37:18;98605.81;;;18.20;88.67
70314;BME280;71040;47.526;18.986;2023-10-31T07:42:19;98614.66;;;18.38;88.25
70314;BME280;71040;47.526;18.986;2023-10-31T07:47:26;98624.34;;;18.47;88.03
70314;BME280;71040;47.526;18.986;2023-10-31T07:52:28;98611.50;;;18.62;87.68
70314;BME280;71040;47.526;18.986;2023-10-31T07:57:29;98589.16;;;18.74;87.29
70314;BME280;71040;47.526;18.986;2023-10-31T08:02:29;98603.94;;;18.94;86.92
70314;BME280;71040;47.526;18.986;2023-10-31T08:07:37;98597.22;;;19.00;86.91
70314;BME280;71040;47.526;18.986;2023-10-31T08:12:44;98606.94;;;19.09;86.85
70314;BME280;71040;47.526;18.986;2023-10-31T08:17:44;98618.06;;;19.12;86.90
70314;BME280;71040;47.526;18.986;2023-10-31T08:22:45;98621.06;;;19.17;86.65
70314;BME280;71040;47.526;18.986;2023-10-31T08:27:45;98618.22;;;19.29;86.65
70314;BME280;71040;47.526;18.986;2023-10-31T08:32:46;98616.41;;;19.29;86.71
70314;BME280;71040;47.526;18.986;2023-10-31T08:37:46;98596.28;;;19.36;86.79
70314;BME280;71040;47.526;18.986;2023-10-31T08:42:47;98595.50;;;19.44;86.78
70314;BME280;71040;47.526;18.986;2023-10-31T08:47:47;98588.25;;;19.46;86.66
70314;BME280;71040;47.526;18.986;2023-10-31T08:52:47;98586.97;;;19.50;86.64
70314;BME280;71040;47.526;18.986;2023-10-31T08:57:48;98598.25;;;19.52;86.44
70314;BME280;71040;47.526;18.986;2023-10-31T09:02:48;98583.56;;;19.58;86.58
70314;BME280;71040;47.526;18.986;2023-10-31T09:07:55;98564.03;;;19.59;86.52
70314;BME280;71040;47.526;18.986;2023-10-31T09:12:55;98560.06;;;19.63;86.54
70314;BME280;71040;47.526;18.986;2023-10-31T09:17:56;98571.88;;;19.68;86.48
70314;BME280;71040;47.526;18.986;2023-10-31T09:22:58;98553.53;;;19.75;86.43
70314;BME280;71040;47.526;18.986;2023-10-31T09:27:59;98538.81;;;19.80;86.02
70314;BME280;71040;47.526;18.986;2023-10-31T09:33:00;98530.03;;;19.80;86.31
70314;BME280;71040;47.526;18.986;2023-10-31T09:38:00;98504.81;;;19.76;86.21
70314;BME280;71040;47.526;18.986;2023-10-31T09:43:01;98519.00;;;19.93;86.26
70314;BME280;71040;47.526;18.986;2023-10-31T09:48:01;98518.38;;;19.99;86.01
70314;BME280;71040;47.526;18.986;2023-10-31T09:53:04;98510.78;;;20.04;85.55
70314;BME280;71040;47.526;18.986;2023-10-31T09:58:06;98500.34;;;20.10;85.55
70314;BME280;71040;47.526;18.986;2023-10-31T10:03:09;98490.25;;;20.06;85.68
70314;BME280;71040;47.526;18.986;2023-10-31T10:08:10;98455.75;;;20.06;86.07
70314;BME280;71040;47.526;18.986;2023-10-31T10:13:10;98441.66;;;20.05;85.84
70314;BME280;71040;47.526;18.986;2023-10-31T10:18:24;98443.50;;;20.13;86.10
70314;BME280;71040;47.526;18.986;2023-10-31T10:23:25;98415.16;;;20.21;85.60
70314;BME280;71040;47.526;18.986;2023-10-31T10:28:26;98406.41;;;20.29;85.66
70314;BME280;71040;47.526;18.986;2023-10-31T10:33:27;98386.50;;;20.25;85.75
70314;BME280;71040;47.526;18.986;2023-10-31T10:38:33;98375.38;;;20.21;85.54
70314;BME280;71040;47.526;18.986;2023-10-31T10:43:37;98377.53;;;20.26;85.96
70314;BME280;71040;47.526;18.986;2023-10-31T10:48:39;98388.16;;;20.34;85.90
70314;BME280;71040;47.526;18.986;2023-10-31T10:53:53;98372.41;;;20.33;85.57
70314;BME280;71040;47.526;18.986;2023-10-31T10:59:01;98356.19;;;20.44;85.35
70314;BME280;71040;47.526;18.986;2023-10-31T11:04:03;98355.03;;;20.46;85.30
70314;BME280;71040;47.526;18.986;2023-10-31T11:09:05;98328.16;;;20.49;85.54
70314;BME280;71040;47.526;18.986;2023-10-31T11:14:09;98320.88;;;20.51;85.54
70314;BME280;71040;47.526;18.986;2023-10-31T11:19:10;98353.88;;;20.57;85.03
70314;BME280;71040;47.526;18.986;2023-10-31T11:24:11;98381.25;;;20.66;84.92
70314;BME280;71040;47.526;18.986;2023-10-31T11:29:11;98329.19;;;20.65;85.08
70314;BME280;71040;47.526;18.986;2023-10-31T11:34:12;98328.66;;;20.61;85.29
70314;BME280;71040;47.526;18.986;2023-10-31T11:39:14;98273.75;;;20.62;85.28
70314;BME280;71040;47.526;18.986;2023-10-31T11:44:16;98258.44;;;19.99;86.91
70314;BME280;71040;47.526;18.986;2023-10-31T11:49:19;98263.19;;;19.29;88.88
70314;BME280;71040;47.526;18.986;2023-10-31T11:54:37;98266.34;;;18.72;91.10
70314;BME280;71040;47.526;18.986;2023-10-31T11:59:38;98258.31;;;18.38;92.25
70314;BME280;71040;47.526;18.986;2023-10-31T12:04:39;98259.91;;;18.14;93.17
70314;BME280;71040;47.526;18.986;2023-10-31T12:09:48;98225.56;;;17.96;93.61
70314;BME280;71040;47.526;18.986;2023-10-31T12:14:49;98235.69;;;17.83;94.03
70314;BME280;71040;47.526;18.986;2023-10-31T12:19:54;98285.44;;;17.69;94.36
70314;BME280;71040;47.526;18.986;2023-10-31T12:25:08;98485.31;;;17.61;94.75
70314;BME280;71040;47.526;18.986;2023-10-31T12:30:09;98600.44;;;17.54;94.87
70314;BME280;71040;47.526;18.986;2023-10-31T12:35:21;98536.09;;;17.45;94.89
70314;BME280;71040;47.526;18.986;2023-10-31T12:40:22;98541.66;;;17.42;94.96
70314;BME280;71040;47.526;18.986;2023-10-31T12:45:23;98475.47;;;17.34;95.01
70314;BME280;71040;47.526;18.986;2023-10-31T12:50:27;98478.41;;;17.31;95.15
70314;BME280;71040;47.526;18.986;2023-10-31T12:55:27;98471.88;;;17.25;95.14
70314;BME280;71040;47.526;18.986;2023-10-31T13:00:33;98509.13;;;17.22;95.27
70314;BME280;71040;47.526;18.986;2023-10-31T13:05:34;98501.66;;;17.18;95.36
70314;BME280;71040;47.526;18.986;2023-10-31T13:10:36;98523.31;;;17.12;95.51
70314;BME280;71040;47.526;18.986;2023-10-31T13:15:36;98525.97;;;17.12;95.43
70314;BME280;71040;47.526;18.986;2023-10-31T13:20:40;98510.56;;;17.07;95.42
70314;BME280;71040;47.526;18.986;2023-10-31T13:25:40;98524.88;;;17.05;95.60
70314;BME280;71040;47.526;18.986;2023-10-31T13:30:40;98541.09;;;17.00;95.70
70314;BME280;71040;47.526;18.986;2023-10-31T13:35:41;98586.41;;;16.95;95.68
70314;BME280;71040;47.526;18.986;2023-10-31T13:40:44;98606.84;;;16.93;95.74
70314;BME280;71040;47.526;18.986;2023-10-31T13:45:44;98635.03;;;16.93;95.78
70314;BME280;71040;47.526;18.986;2023-10-31T13:50:44;98632.78;;;16.88;95.79
70314;BME280;71040;47.526;18.986;2023-10-31T13:55:46;98583.06;;;16.84;96.04
70314;BME280;71040;47.526;18.986;2023-10-31T14:00:46;98566.38;;;16.83;95.82
70314;BME280;71040;47.526;18.986;2023-10-31T14:05:46;98498.72;;;16.82;95.75
70314;BME280;71040;47.526;18.986;2023-10-31T14:10:47;98395.94;;;16.81;95.71
70314;BME280;71040;47.526;18.986;2023-10-31T14:15:48;98358.44;;;16.77;95.85
70314;BME280;71040;47.526;18.986;2023-10-31T14:20:49;98418.44;;;16.75;95.66
70314;BME280;71040;47.526;18.986;2023-10-31T14:25:51;98402.59;;;16.75;95.76
70314;BME280;71040;47.526;18.986;2023-10-31T14:30:52;98453.03;;;16.72;95.63
70314;BME280;71040;47.526;18.986;2023-10-31T14:35:54;98456.91;;;16.68;95.70
70314;BME280;71040;47.526;18.986;2023-10-31T14:40:54;98432.16;;;16.59;95.73
70314;BME280;71040;47.526;18.986;2023-10-31T14:45:55;98444.81;;;16.65;95.74
70314;BME280;71040;47.526;18.986;2023-10-31T14:50:57;98463.28;;;16.65;95.79
70314;BME280;71040;47.526;18.986;2023-10-31T14:56:01;98460.91;;;16.62;95.64
70314;BME280;71040;47.526;18.986;2023-10-31T15:01:05;98489.63;;;16.56;95.69
70314;BME280;71040;47.526;18.986;2023-10-31T15:06:06;98562.28;;;16.60;95.74
70314;BME280;71040;47.526;18.986;2023-10-31T15:11:07;98585.31;;;16.58;95.62
70314;BME280;71040;47.526;18.986;2023-10-31T15:16:08;98626.69;;;16.57;95.88
70314;BME280;71040;47.526;18.986;2023-10-31T15:21:08;98637.91;;;16.50;95.68
70314;BME280;71040;47.526;18.986;2023-10-31T15:26:11;98654.44;;;16.52;95.85
70314;BME280;71040;47.526;18.986;2023-10-31T15:31:13;98669.41;;;16.51;95.79
70314;BME280;71040;47.526;18.986;2023-10-31T15:36:13;98681.78;;;16.51;95.80
70314;BME280;71040;47.526;18.986;2023-10-31T15:41:14;98678.47;;;16.49;95.76
70314;BME280;71040;47.526;18.986;2023-10-31T15:46:15;98677.63;;;16.48;95.85
70314;BME280;71040;47.526;18.986;2023-10-31T15:51:18;98673.69;;;16.43;96.07
70314;BME280;71040;47.526;18.986;2023-10-31T15:56:19;98670.75;;;16.36;96.00
70314;BME280;71040;47.526;18.986;2023-10-31T16:01:21;98692.28;;;16.41;95.72
70314;BME280;71040;47.526;18.986;2023-10-31T16:06:24;98676.44;;;16.41;95.72
70314;BME280;71040;47.526;18.986;2023-10-31T16:11:24;98671.19;;;16.41;95.69
70314;BME280;71040;47.526;18.986;2023-10-31T16:16:34;98692.56;;;16.38;95.68
70314;BME280;71040;47.526;18.986;2023-10-31T16:21:35;98730.28;;;16.39;95.73
70314;BME280;71040;47.526;18.986;2023-10-31T16:26:35;98736.69;;;16.36;95.70
70314;BME280;71040;47.526;18.986;2023-10-31T16:31:35;98713.78;;;16.37;95.67
70314;BME280;71040;47.526;18.986;2023-10-31T16:36:36;98718.47;;;16.33;95.64
70314;BME280;71040;47.526;18.986;2023-10-31T16:41:43;98705.28;;;16.33;95.73
70314;BME280;71040;47.526;18.986;2023-10-31T16:46:44;98720.41;;;16.31;95.87
70314;BME280;71040;47.526;18.986;2023-10-31T16:51:45;98763.56;;;16.30;95.68
70314;BME280;71040;47.526;18.986;2023-10-31T16:56:46;98774.22;;;16.28;95.82
70314;BME280;71040;47.526;18.986;2023-10-31T17:01:46;98802.69;;;16.25;95.76
70314;BME280;71040;47.526;18.986;2023-10-31T17:06:47;98814.06;;;16.25;95.69
70314;BME280;71040;47.526;18.986;2023-10-31T17:11:50;98840.56;;;16.24;95.76
70314;BME280;71040;47.526;18.986;2023-10-31T17:16:50;98844.66;;;16.17;95.86
70314;BME280;71040;47.526;18.986;2023-10-31T17:21:50;98877.84;;;16.19;95.69
70314;BME280;71040;47.526;18.986;2023-10-31T17:26:52;98857.38;;;16.12;95.67
70314;BME280;71040;47.526;18.986;2023-10-31T17:31:59;98871.72;;;16.19;95.86
70314;BME280;71040;47.526;18.986;2023-10-31T17:36:59;98869.22;;;16.17;95.66
70314;BME280;71040;47.526;18.986;2023-10-31T17:42:02;98866.97;;;16.13;95.75
70314;BME280;71040;47.526;18.986;2023-10-31T17:47:02;98888.91;;;16.13;95.66
70314;BME280;71040;47.526;18.986;2023-10-31T17:52:03;98891.53;;;16.13;95.68
70314;BME280;71040;47.526;18.986;2023-10-31T17:57:04;98888.19;;;16.11;95.58
70314;BME280;71040;47.526;18.986;2023-10-31T18:02:06;98891.66;;;16.12;95.73
70314;BME280;71040;47.526;18.986;2023-10-31T18:07:06;98895.25;;;16.11;95.59
70314;BME280;71040;47.526;18.986;2023-10-31T18:12:07;98893.56;;;16.10;95.46
70314;BME280;71040;47.526;18.986;2023-10-31T18:17:12;98878.72;;;16.09;95.62
70314;BME280;71040;47.526;18.986;2023-10-31T18:22:15;98883.16;;;16.08;95.57
70314;BME280;71040;47.526;18.986;2023-10-31T18:27:25;98859.41;;;16.08;95.69
70314;BME280;71040;47.526;18.986;2023-10-31T18:32:25;98859.53;;;16.07;95.71
70314;BME280;71040;47.526;18.986;2023-10-31T18:37:28;98865.69;;;15.96;95.73
70314;BME280;71040;47.526;18.986;2023-10-31T18:42:33;98897.91;;;16.00;95.67
70314;BME280;71040;47.526;18.986;2023-10-31T18:47:33;98913.34;;;16.04;95.70
70314;BME280;71040;47.526;18.986;2023-10-31T18:52:36;98924.88;;;16.03;95.65
70314;BME280;71040;47.526;18.986;2023-10-31T18:57:37;98964.53;;;16.02;95.60
70314;BME280;71040;47.526;18.986;2023-10-31T19:02:38;98948.25;;;15.97;95.71
70314;BME280;71040;47.526;18.986;2023-10-31T19:07:38;98972.81;;;15.97;95.64
70314;BME280;71040;47.526;18.986;2023-10-31T19:12:41;98965.97;;;15.94;95.45
70314;BME280;71040;47.526;18.986;2023-10-31T19:17:42;98959.63;;;15.97;95.48
70314;BME280;71040;47.526;18.986;2023-10-31T19:22:44;98957.50;;;15.91;95.43
70314;BME280;71040;47.526;18.986;2023-10-31T19:27:45;98967.06;;;15.92;95.50
70314;BME280;71040;47.526;18.986;2023-10-31T19:32:45;98981.91;;;15.93;95.65
70314;BME280;71040;47.526;18.986;2023-10-31T19:37:49;98996.06;;;15.92;95.64
70314;BME280;71040;47.526;18.986;2023-10-31T19:42:51;99000.63;;;15.90;95.54
70314;BME280;71040;47.526;18.986;2023-10-31T19:47:54;98993.66;;;15.89;95.71
70314;BME280;71040;47.526;18.986;2023-10-31T19:52:55;98993.78;;;15.87;95.63
70314;BME280;71040;47.526;18.986;2023-10-31T19:57:56;98981.78;;;15.83;95.73
70314;BME280;71040;47.526;18.986;2023-10-31T20:02:56;99006.22;;;15.85;95.51
70314;BME280;71040;47.526;18.986;2023-10-31T20:07:59;99005.78;;;15.80;95.73
70314;BME280;71040;47.526;18.986;2023-10-31T20:12:59;99023.38;;;15.80;95.51
70314;BME280;71040;47.526;18.986;2023-10-31T20:18:02;99049.00;;;15.78;95.75
70314;BME280;71040;47.526;18.986;2023-10-31T20:23:02;99054.28;;;15.78;95.69
70314;BME280;71040;47.526;18.986;2023-10-31T20:28:03;99070.94;;;15.78;95.64
70314;BME280;71040;47.526;18.986;2023-10-31T20:33:06;99072.09;;;15.74;95.78
70314;BME280;71040;47.526;18.986;2023-10-31T20:38:06;99094.03;;;15.75;95.82
70314;BME280;71040;47.526;18.986;2023-10-31T20:43:07;99089.81;;;15.72;95.71
70314;BME280;71040;47.526;18.986;2023-10-31T20:48:08;99099.53;;;15.72;95.72
70314;BME280;71040;47.526;18.986;2023-10-31T20:53:09;99099.63;;;15.70;95.75
70314;BME280;71040;47.526;18.986;2023-10-31T20:58:09;99099.78;;;15.69;95.85
70314;BME280;71040;47.526;18.986;2023-10-31T21:03:11;99118.34;;;15.67;95.93
70314;BME280;71040;47.526;18.986;2023-10-31T21:08:12;99118.56;;;15.64;96.00
70314;BME280;71040;47.526;18.986;2023-10-31T21:13:12;99118.78;;;15.61;95.85
70314;BME280;71040;47.526;18.986;2023-10-31T21:18:13;99128.59;;;15.59;95.96
70314;BME280;71040;47.526;18.986;2023-10-31T21:23:16;99137.34;;;15.60;96.09
70314;BME280;71040;47.526;18.986;2023-10-31T21:28:17;99146.19;;;15.58;96.19
70314;BME280;71040;47.526;18.986;2023-10-31T21:33:20;99136.31;;;15.49;96.00
70314;BME280;71040;47.526;18.986;2023-10-31T21:38:22;99142.22;;;15.53;96.20
70314;BME280;71040;47.526;18.986;2023-10-31T21:43:23;99152.75;;;15.53;96.22
70314;BME280;71040;47.526;18.986;2023-10-31T21:48:28;99149.38;;;15.51;96.28
70314;BME280;71040;47.526;18.986;2023-10-31T21:53:31;99167.81;;;15.51;96.16
70314;BME280;71040;47.526;18.986;2023-10-31T21:58:31;99167.09;;;15.49;96.14
70314;BME280;71040;47.526;18.986;2023-10-31T22:03:31;99177.63;;;15.49;96.37
70314;BME280;71040;47.526;18.986;2023-10-31T22:08:32;99185.78;;;15.46;96.15
70314;BME280;71040;47.526;18.986;2023-10-31T22:13:32;99196.31;;;15.46;96.22
70314;BME280;71040;47.526;18.986;2023-10-31T22:18:33;99205.28;;;15.43;96.25
70314;BME280;71040;47.526;18.986;2023-10-31T22:23:38;99204.44;;;15.43;96.46
70314;BME280;71040;47.526;18.986;2023-10-31T22:28:41;99213.50;;;15.39;96.65
70314;BME280;71040;47.526;18.986;2023-10-31T22:33:46;99216.03;;;15.40;96.40
70314;BME280;71040;47.526;18.986;2023-10-31T22:38:49;99225.94;;;15.37;96.47
70314;BME280;71040;47.526;18.986;2023-10-31T22:43:51;99221.75;;;15.34;96.39
70314;BME280;71040;47.526;18.986;2023-10-31T22:48:52;99231.44;;;15.34;96.33
70314;BME280;71040;47.526;18.986;2023-10-31T22:53:55;99219.22;;;15.33;96.53
70314;BME280;71040;47.526;18.986;2023-10-31T22:58:59;99237.75;;;15.31;96.61
70314;BME280;71040;47.526;18.986;2023-10-31T23:03:59;99234.41;;;15.29;96.34
70314;BME280;71040;47.526;18.986;2023-10-31T23:08:59;99243.03;;;15.31;96.42
70314;BME280;71040;47.526;18.986;2023-10-31T23:14:00;99245.75;;;15.30;96.31
70314;BME280;71040;47.526;18.986;2023-10-31T23:19:00;99248.63;;;15.27;96.46
70314;BME280;71040;47.526;18.986;2023-10-31T23:24:01;99256.41;;;15.28;96.54
70314;BME280;71040;47.526;18.986;2023-10-31T23:29:02;99260.94;;;15.26;96.60
70314;BME280;71040;47.526;18.986;2023-10-31T23:34:04;99265.47;;;15.24;96.44
70314;BME280;71040;47.526;18.986;2023-10-31T23:39:04;99279.47;;;15.25;96.39
70314;BME280;71040;47.526;18.986;2023-10-31T23:44:05;99275.28;;;15.22;96.34
70314;BME280;71040;47.526;18.986;2023-10-31T23:49:05;99289.19;;;15.84;94.62
70314;BME280;71040;47.526;18.986;2023-10-31T23:54:06;99295.75;;;16.73;91.62
70314;BME280;71040;47.526;18.986;2023-10-31T23:59:06;99291.78;;;17.23;90.00
